sensor_id;sensor_type;location;lat;lon;timestamp;temperature;humidity
22337;DHT22;14992;50.844;4.418;2022-08-18T00:00:21;21.50;99.90
22337;DHT22;14992;50.844;4.418;2022-08-18T00:03:05;21.40;99.90
22337;DHT22;14992;50.844;4.418;2022-08-18T00:06:20;21.40;99.90
22337;DHT22;14992;50.844;4.418;2022-08-18T00:09:05;21.30;99.90
22337;DHT22;14992;50.844;4.418;2022-08-18T00:12:04;21.40;99.90
22337;DHT22;14992;50.844;4.418;2022-08-18T00:14:47;21.60;99.90
22337;DHT22;14992;50.844;4.418;2022-08-18T00:17:35;21.70;99.90
22337;DHT22;14992;50.844;4.418;2022-08-18T00:20:30;21.70;99.90
22337;DHT22;14992;50.844;4.418;2022-08-18T00:23:25;21.80;99.90
22337;DHT22;14992;50.844;4.418;2022-08-18T00:26:20;21.80;99.90
22337;DHT22;14992;50.844;4.418;2022-08-18T00:28:56;21.80;99.90
22337;DHT22;14992;50.844;4.418;2022-08-18T00:31:52;21.70;99.90
22337;DHT22;14992;50.844;4.418;2022-08-18T00:34:33;21.80;99.90
22337;DHT22;14992;50.844;4.418;2022-08-18T00:37:28;21.80;99.90
22337;DHT22;14992;50.844;4.418;2022-08-18T00:40:12;21.70;99.90
22337;DHT22;14992;50.844;4.418;2022-08-18T00:43:02;21.70;99.90
22337;DHT22;14992;50.844;4.418;2022-08-18T00:45:46;21.60;99.90
22337;DHT22;14992;50.844;4.418;2022-08-18T00:48:34;21.40;99.90
22337;DHT22;14992;50.844;4.418;2022-08-18T00:51:23;21.30;99.90
22337;DHT22;14992;50.844;4.418;2022-08-18T00:54:15;21.20;99.90
22337;DHT22;14992;50.844;4.418;2022-08-18T00:57:02;21.30;99.90
22337;DHT22;14992;50.844;4.418;2022-08-18T00:59:55;21.40;99.90
22337;DHT22;14992;50.844;4.418;2022-08-18T01:02:46;21.30;99.90
22337;DHT22;14992;50.844;4.418;2022-08-18T01:05:44;21.30;99.90
22337;DHT22;14992;50.844;4.418;2022-08-18T01:08:27;21.40;99.90
22337;DHT22;14992;50.844;4.418;2022-08-18T01:11:25;21.40;99.90
22337;DHT22;14992;50.844;4.418;2022-08-18T01:14:08;21.20;99.90
22337;DHT22;14992;50.844;4.418;2022-08-18T01:17:06;21.10;99.90
22337;DHT22;14992;50.844;4.418;2022-08-18T01:20:19;21.20;99.90
22337;DHT22;14992;50.844;4.418;2022-08-18T01:23:37;21.20;99.90
22337;DHT22;14992;50.844;4.418;2022-08-18T01:26:28;21.30;99.90
22337;DHT22;14992;50.844;4.418;2022-08-18T01:29:17;21.20;99.90
22337;DHT22;14992;50.844;4.418;2022-08-18T01:32:08;21.20;99.90
22337;DHT22;14992;50.844;4.418;2022-08-18T01:34:51;21.50;99.90
22337;DHT22;14992;50.844;4.418;2022-08-18T01:37:40;21.50;99.90
22337;DHT22;14992;50.844;4.418;2022-08-18T01:40:36;21.40;99.90
22337;DHT22;14992;50.844;4.418;2022-08-18T01:43:38;21.50;99.90
22337;DHT22;14992;50.844;4.418;2022-08-18T01:46:34;21.60;99.90
22337;DHT22;14992;50.844;4.418;2022-08-18T01:49:09;21.50;99.90
22337;DHT22;14992;50.844;4.418;2022-08-18T01:52:04;21.60;99.90
22337;DHT22;14992;50.844;4.418;2022-08-18T01:54:45;21.60;99.90
22337;DHT22;14992;50.844;4.418;2022-08-18T01:57:45;21.60;99.90
22337;DHT22;14992;50.844;4.418;2022-08-18T02:00:28;21.40;99.90
22337;DHT22;14992;50.844;4.418;2022-08-18T02:03:18;21.30;99.90
22337;DHT22;14992;50.844;4.418;2022-08-18T02:06:02;21.60;99.90
22337;DHT22;14992;50.844;4.418;2022-08-18T02:08:53;21.70;99.90
22337;DHT22;14992;50.844;4.418;2022-08-18T02:11:37;21.80;99.90
22337;DHT22;14992;50.844;4.418;2022-08-18T02:14:28;21.90;99.90
22337;DHT22;14992;50.844;4.418;2022-08-18T02:17:17;21.60;99.90
22337;DHT22;14992;50.844;4.418;2022-08-18T02:20:14;21.50;99.90
22337;DHT22;14992;50.844;4.418;2022-08-18T02:23:10;21.60;99.90
22337;DHT22;14992;50.844;4.418;2022-08-18T02:26:06;21.80;99.90
22337;DHT22;14992;50.844;4.418;2022-08-18T02:28:47;21.70;99.90
22337;DHT22;14992;50.844;4.418;2022-08-18T02:31:43;21.70;99.90
22337;DHT22;14992;50.844;4.418;2022-08-18T02:34:25;21.70;99.90
22337;DHT22;14992;50.844;4.418;2022-08-18T02:37:20;21.60;99.90
22337;DHT22;14992;50.844;4.418;2022-08-18T02:40:04;21.70;99.90
22337;DHT22;14992;50.844;4.418;2022-08-18T02:42:54;21.90;99.90
22337;DHT22;14992;50.844;4.418;2022-08-18T02:45:36;21.90;99.90
22337;DHT22;14992;50.844;4.418;2022-08-18T02:48:27;21.90;99.90
22337;DHT22;14992;50.844;4.418;2022-08-18T02:51:10;21.90;99.90
22337;DHT22;14992;50.844;4.418;2022-08-18T02:53:59;21.60;99.90
22337;DHT22;14992;50.844;4.418;2022-08-18T02:56:41;21.40;99.90
22337;DHT22;14992;50.844;4.418;2022-08-18T02:59:31;21.60;99.90
22337;DHT22;14992;50.844;4.418;2022-08-18T03:02:12;21.80;99.90
22337;DHT22;14992;50.844;4.418;2022-08-18T03:05:09;21.80;99.90
22337;DHT22;14992;50.844;4.418;2022-08-18T03:07:47;21.80;99.90
22337;DHT22;14992;50.844;4.418;2022-08-18T03:10:43;21.80;99.90
22337;DHT22;14992;50.844;4.418;2022-08-18T03:13:24;21.80;99.90
22337;DHT22;14992;50.844;4.418;2022-08-18T03:16:20;21.80;99.90
22337;DHT22;14992;50.844;4.418;2022-08-18T03:19:06;21.80;99.90
22337;DHT22;14992;50.844;4.418;2022-08-18T03:22:06;21.70;99.90
22337;DHT22;14992;50.844;4.418;2022-08-18T03:25:00;21.80;99.90
22337;DHT22;14992;50.844;4.418;2022-08-18T03:27:49;21.90;99.90
22337;DHT22;14992;50.844;4.418;2022-08-18T03:30:30;21.80;99.90
22337;DHT22;14992;50.844;4.418;2022-08-18T03:33:18;21.70;99.90
22337;DHT22;14992;50.844;4.418;2022-08-18T03:36:03;21.80;99.90
22337;DHT22;14992;50.844;4.418;2022-08-18T03:38:53;21.90;99.90
22337;DHT22;14992;50.844;4.418;2022-08-18T03:41:50;21.80;99.90
22337;DHT22;14992;50.844;4.418;2022-08-18T03:44:35;21.80;99.90
22337;DHT22;14992;50.844;4.418;2022-08-18T03:47:30;21.90;99.90
22337;DHT22;14992;50.844;4.418;2022-08-18T03:50:13;21.80;99.90
22337;DHT22;14992;50.844;4.418;2022-08-18T03:53:01;21.60;99.90
22337;DHT22;14992;50.844;4.418;2022-08-18T03:55:45;21.50;99.90
22337;DHT22;14992;50.844;4.418;2022-08-18T03:58:33;21.60;99.90
22337;DHT22;14992;50.844;4.418;2022-08-18T04:01:17;21.60;99.90
22337;DHT22;14992;50.844;4.418;2022-08-18T04:04:08;21.50;99.90
22337;DHT22;14992;50.844;4.418;2022-08-18T04:06:53;21.50;99.90
22337;DHT22;14992;50.844;4.418;2022-08-18T04:09:42;21.60;99.90
22337;DHT22;14992;50.844;4.418;2022-08-18T04:12:25;21.50;99.90
22337;DHT22;14992;50.844;4.418;2022-08-18T04:15:28;21.60;99.90
22337;DHT22;14992;50.844;4.418;2022-08-18T04:18:23;21.30;99.90
22337;DHT22;14992;50.844;4.418;2022-08-18T04:21:18;21.30;99.90
22337;DHT22;14992;50.844;4.418;2022-08-18T04:24:01;21.50;99.90
22337;DHT22;14992;50.844;4.418;2022-08-18T04:26:49;21.50;99.90
22337;DHT22;14992;50.844;4.418;2022-08-18T04:29:32;21.60;99.90
22337;DHT22;14992;50.844;4.418;2022-08-18T04:32:20;21.50;99.90
22337;DHT22;14992;50.844;4.418;2022-08-18T04:35:15;21.60;99.90
22337;DHT22;14992;50.844;4.418;2022-08-18T04:37:56;21.70;99.90
22337;DHT22;14992;50.844;4.418;2022-08-18T04:40:51;21.90;99.90
22337;DHT22;14992;50.844;4.418;2022-08-18T04:43:32;21.60;99.90
22337;DHT22;14992;50.844;4.418;2022-08-18T04:46:29;21.30;99.90
22337;DHT22;14992;50.844;4.418;2022-08-18T04:49:15;21.30;99.90
22337;DHT22;14992;50.844;4.418;2022-08-18T04:52:11;21.40;99.90
22337;DHT22;14992;50.844;4.418;2022-08-18T04:55:23;21.40;99.90
22337;DHT22;14992;50.844;4.418;2022-08-18T04:58:04;21.20;99.90
22337;DHT22;14992;50.844;4.418;2022-08-18T05:01:02;21.30;99.90
22337;DHT22;14992;50.844;4.418;2022-08-18T05:03:45;21.40;99.90
22337;DHT22;14992;50.844;4.418;2022-08-18T05:06:42;21.50;99.90
22337;DHT22;14992;50.844;4.418;2022-08-18T05:09:23;21.70;99.90
22337;DHT22;14992;50.844;4.418;2022-08-18T05:12:20;21.80;99.90
22337;DHT22;14992;50.844;4.418;2022-08-18T05:15:02;21.90;99.90
22337;DHT22;14992;50.844;4.418;2022-08-18T05:17:50;21.80;99.90
22337;DHT22;14992;50.844;4.418;2022-08-18T05:20:39;21.90;99.90
22337;DHT22;14992;50.844;4.418;2022-08-18T05:23:22;21.90;99.90
22337;DHT22;14992;50.844;4.418;2022-08-18T05:26:12;22.00;99.90
22337;DHT22;14992;50.844;4.418;2022-08-18T05:28:54;22.00;99.90
22337;DHT22;14992;50.844;4.418;2022-08-18T05:32:00;22.00;99.90
22337;DHT22;14992;50.844;4.418;2022-08-18T05:35:03;22.10;99.90
22337;DHT22;14992;50.844;4.418;2022-08-18T05:38:07;22.10;99.90
22337;DHT22;14992;50.844;4.418;2022-08-18T05:41:08;22.10;99.90
22337;DHT22;14992;50.844;4.418;2022-08-18T05:43:51;21.90;99.90
22337;DHT22;14992;50.844;4.418;2022-08-18T05:46:49;21.70;99.90
22337;DHT22;14992;50.844;4.418;2022-08-18T05:49:33;21.70;99.90
22337;DHT22;14992;50.844;4.418;2022-08-18T05:52:32;21.50;99.90
22337;DHT22;14992;50.844;4.418;2022-08-18T05:55:21;21.80;99.90
22337;DHT22;14992;50.844;4.418;2022-08-18T05:58:35;22.00;99.90
22337;DHT22;14992;50.844;4.418;2022-08-18T06:01:21;21.80;99.90
22337;DHT22;14992;50.844;4.418;2022-08-18T06:04:18;21.80;99.90
22337;DHT22;14992;50.844;4.418;2022-08-18T06:07:18;21.90;99.90
22337;DHT22;14992;50.844;4.418;2022-08-18T06:10:07;22.00;99.90
22337;DHT22;14992;50.844;4.418;2022-08-18T06:12:58;22.00;99.90
22337;DHT22;14992;50.844;4.418;2022-08-18T06:15:48;22.00;99.90
22337;DHT22;14992;50.844;4.418;2022-08-18T06:18:46;21.80;99.90
22337;DHT22;14992;50.844;4.418;2022-08-18T06:21:48;21.80;99.90
22337;DHT22;14992;50.844;4.418;2022-08-18T06:24:40;22.00;99.90
22337;DHT22;14992;50.844;4.418;2022-08-18T06:27:37;21.70;99.90
22337;DHT22;14992;50.844;4.418;2022-08-18T06:30:47;21.60;99.90
22337;DHT22;14992;50.844;4.418;2022-08-18T06:33:38;21.50;99.90
22337;DHT22;14992;50.844;4.418;2022-08-18T06:36:44;21.50;99.90
22337;DHT22;14992;50.844;4.418;2022-08-18T06:39:26;21.60;99.90
22337;DHT22;14992;50.844;4.418;2022-08-18T06:42:24;21.80;99.90
22337;DHT22;14992;50.844;4.418;2022-08-18T06:45:14;22.00;99.90
22337;DHT22;14992;50.844;4.418;2022-08-18T06:48:19;22.10;99.90
22337;DHT22;14992;50.844;4.418;2022-08-18T06:51:14;22.30;99.90
22337;DHT22;14992;50.844;4.418;2022-08-18T06:54:03;22.30;99.90
22337;DHT22;14992;50.844;4.418;2022-08-18T06:56:53;22.30;99.90
22337;DHT22;14992;50.844;4.418;2022-08-18T06:59:36;22.50;99.90
22337;DHT22;14992;50.844;4.418;2022-08-18T07:02:31;22.30;99.90
22337;DHT22;14992;50.844;4.418;2022-08-18T07:05:33;22.20;99.90
22337;DHT22;14992;50.844;4.418;2022-08-18T07:08:19;22.40;99.90
22337;DHT22;14992;50.844;4.418;2022-08-18T07:11:20;22.40;99.90
22337;DHT22;14992;50.844;4.418;2022-08-18T07:14:13;22.30;99.90
22337;DHT22;14992;50.844;4.418;2022-08-18T07:17:11;22.30;99.90
22337;DHT22;14992;50.844;4.418;2022-08-18T07:20:24;22.50;99.90
22337;DHT22;14992;50.844;4.418;2022-08-18T07:23:24;22.80;99.90
22337;DHT22;14992;50.844;4.418;2022-08-18T07:26:20;22.70;99.90
22337;DHT22;14992;50.844;4.418;2022-08-18T07:29:12;22.90;99.90
22337;DHT22;14992;50.844;4.418;2022-08-18T07:32:13;23.00;99.90
22337;DHT22;14992;50.844;4.418;2022-08-18T07:34:57;22.90;99.90
22337;DHT22;14992;50.844;4.418;2022-08-18T07:37:52;22.90;99.90
22337;DHT22;14992;50.844;4.418;2022-08-18T07:40:58;23.00;99.90
22337;DHT22;14992;50.844;4.418;2022-08-18T07:43:58;22.90;99.90
22337;DHT22;14992;50.844;4.418;2022-08-18T07:46:59;22.80;99.90
22337;DHT22;14992;50.844;4.418;2022-08-18T07:49:43;23.10;99.90
22337;DHT22;14992;50.844;4.418;2022-08-18T07:53:12;23.00;99.90
22337;DHT22;14992;50.844;4.418;2022-08-18T07:56:01;23.10;99.90
22337;DHT22;14992;50.844;4.418;2022-08-18T07:58:55;23.20;99.90
22337;DHT22;14992;50.844;4.418;2022-08-18T08:01:43;23.60;99.90
22337;DHT22;14992;50.844;4.418;2022-08-18T08:04:42;23.80;99.90
22337;DHT22;14992;50.844;4.418;2022-08-18T08:07:29;23.30;99.90
22337;DHT22;14992;50.844;4.418;2022-08-18T08:10:32;23.30;99.90
22337;DHT22;14992;50.844;4.418;2022-08-18T08:13:20;23.40;99.90
22337;DHT22;14992;50.844;4.418;2022-08-18T08:16:36;23.60;99.90
22337;DHT22;14992;50.844;4.418;2022-08-18T08:19:35;23.90;99.90
22337;DHT22;14992;50.844;4.418;2022-08-18T08:22:52;24.10;99.90
22337;DHT22;14992;50.844;4.418;2022-08-18T08:25:58;24.10;99.90
22337;DHT22;14992;50.844;4.418;2022-08-18T08:28:51;23.90;99.90
22337;DHT22;14992;50.844;4.418;2022-08-18T08:32:03;24.00;99.90
22337;DHT22;14992;50.844;4.418;2022-08-18T08:34:52;23.80;99.90
22337;DHT22;14992;50.844;4.418;2022-08-18T08:38:13;23.90;99.90
22337;DHT22;14992;50.844;4.418;2022-08-18T08:41:19;23.70;99.90
22337;DHT22;14992;50.844;4.418;2022-08-18T08:44:17;23.70;99.90
22337;DHT22;14992;50.844;4.418;2022-08-18T08:47:04;23.80;99.90
22337;DHT22;14992;50.844;4.418;2022-08-18T08:49:59;23.50;99.90
22337;DHT22;14992;50.844;4.418;2022-08-18T08:52:51;23.70;99.90
22337;DHT22;14992;50.844;4.418;2022-08-18T08:55:52;23.90;99.90
22337;DHT22;14992;50.844;4.418;2022-08-18T08:58:41;23.90;99.90
22337;DHT22;14992;50.844;4.418;2022-08-18T09:01:45;23.90;99.90
22337;DHT22;14992;50.844;4.418;2022-08-18T09:04:36;24.00;99.90
22337;DHT22;14992;50.844;4.418;2022-08-18T09:08:02;23.80;99.90
22337;DHT22;14992;50.844;4.418;2022-08-18T09:18:17;24.00;99.90
22337;DHT22;14992;50.844;4.418;2022-08-18T09:21:26;23.80;99.90
22337;DHT22;14992;50.844;4.418;2022-08-18T09:24:26;23.70;99.90
22337;DHT22;14992;50.844;4.418;2022-08-18T09:27:37;24.10;99.90
22337;DHT22;14992;50.844;4.418;2022-08-18T09:30:57;24.20;99.90
22337;DHT22;14992;50.844;4.418;2022-08-18T09:37:11;24.30;99.90
22337;DHT22;14992;50.844;4.418;2022-08-18T09:40:02;24.40;99.90
22337;DHT22;14992;50.844;4.418;2022-08-18T09:43:33;24.70;99.90
22337;DHT22;14992;50.844;4.418;2022-08-18T09:46:57;24.90;99.90
22337;DHT22;14992;50.844;4.418;2022-08-18T09:49:47;25.00;99.90
22337;DHT22;14992;50.844;4.418;2022-08-18T09:52:47;24.90;99.90
22337;DHT22;14992;50.844;4.418;2022-08-18T09:55:52;24.90;99.90
22337;DHT22;14992;50.844;4.418;2022-08-18T09:59:01;24.60;99.90
22337;DHT22;14992;50.844;4.418;2022-08-18T10:01:43;24.60;99.90
22337;DHT22;14992;50.844;4.418;2022-08-18T10:04:36;24.60;99.90
22337;DHT22;14992;50.844;4.418;2022-08-18T10:07:31;24.50;99.90
22337;DHT22;14992;50.844;4.418;2022-08-18T10:10:34;24.40;99.90
22337;DHT22;14992;50.844;4.418;2022-08-18T10:13:41;24.40;99.90
22337;DHT22;14992;50.844;4.418;2022-08-18T10:16:44;24.40;99.90
22337;DHT22;14992;50.844;4.418;2022-08-18T10:19:54;24.40;99.90
22337;DHT22;14992;50.844;4.418;2022-08-18T10:23:07;24.40;99.90
22337;DHT22;14992;50.844;4.418;2022-08-18T10:25:49;24.50;99.90
22337;DHT22;14992;50.844;4.418;2022-08-18T10:29:00;24.40;99.90
22337;DHT22;14992;50.844;4.418;2022-08-18T10:36:00;25.20;99.90
22337;DHT22;14992;50.844;4.418;2022-08-18T10:38:52;25.40;99.90
22337;DHT22;14992;50.844;4.418;2022-08-18T10:41:36;25.30;99.90
22337;DHT22;14992;50.844;4.418;2022-08-18T10:44:36;25.20;99.90
22337;DHT22;14992;50.844;4.418;2022-08-18T10:47:22;25.20;99.90
22337;DHT22;14992;50.844;4.418;2022-08-18T10:50:19;25.00;99.90
22337;DHT22;14992;50.844;4.418;2022-08-18T10:53:03;24.90;99.90
22337;DHT22;14992;50.844;4.418;2022-08-18T10:56:30;24.90;99.90
22337;DHT22;14992;50.844;4.418;2022-08-18T10:59:21;25.20;99.90
22337;DHT22;14992;50.844;4.418;2022-08-18T11:02:59;25.20;99.90
22337;DHT22;14992;50.844;4.418;2022-08-18T11:06:06;25.50;99.90
22337;DHT22;14992;50.844;4.418;2022-08-18T11:09:00;25.70;99.90
22337;DHT22;14992;50.844;4.418;2022-08-18T11:11:44;25.70;99.90
22337;DHT22;14992;50.844;4.418;2022-08-18T11:15:00;26.20;99.90
22337;DHT22;14992;50.844;4.418;2022-08-18T11:18:18;26.20;99.90
22337;DHT22;14992;50.844;4.418;2022-08-18T11:21:31;26.10;99.90
22337;DHT22;14992;50.844;4.418;2022-08-18T11:24:18;25.90;99.90
22337;DHT22;14992;50.844;4.418;2022-08-18T11:27:19;26.20;99.90
22337;DHT22;14992;50.844;4.418;2022-08-18T11:30:16;26.10;99.90
22337;DHT22;14992;50.844;4.418;2022-08-18T11:33:04;26.10;99.90
22337;DHT22;14992;50.844;4.418;2022-08-18T11:36:04;26.30;99.90
22337;DHT22;14992;50.844;4.418;2022-08-18T11:38:53;26.60;99.90
22337;DHT22;14992;50.844;4.418;2022-08-18T11:41:48;26.90;99.90
22337;DHT22;14992;50.844;4.418;2022-08-18T11:44:40;26.70;99.90
22337;DHT22;14992;50.844;4.418;2022-08-18T11:47:36;26.90;99.90
22337;DHT22;14992;50.844;4.418;2022-08-18T11:50:26;26.80;99.90
22337;DHT22;14992;50.844;4.418;2022-08-18T11:53:22;26.60;99.90
22337;DHT22;14992;50.844;4.418;2022-08-18T11:56:20;26.40;99.90
22337;DHT22;14992;50.844;4.418;2022-08-18T11:59:33;26.50;99.90
22337;DHT22;14992;50.844;4.418;2022-08-18T12:02:38;26.50;99.90
22337;DHT22;14992;50.844;4.418;2022-08-18T12:05:43;26.70;99.90
22337;DHT22;14992;50.844;4.418;2022-08-18T12:08:34;26.80;99.90
22337;DHT22;14992;50.844;4.418;2022-08-18T12:11:49;27.00;99.90
22337;DHT22;14992;50.844;4.418;2022-08-18T12:14:27;27.00;99.90
22337;DHT22;14992;50.844;4.418;2022-08-18T12:17:30;26.80;99.90
22337;DHT22;14992;50.844;4.418;2022-08-18T12:20:19;26.80;99.90
22337;DHT22;14992;50.844;4.418;2022-08-18T12:23:01;26.70;99.90
22337;DHT22;14992;50.844;4.418;2022-08-18T12:25:51;26.70;99.90
22337;DHT22;14992;50.844;4.418;2022-08-18T12:28:32;26.80;99.90
22337;DHT22;14992;50.844;4.418;2022-08-18T12:31:20;26.90;99.90
22337;DHT22;14992;50.844;4.418;2022-08-18T12:34:24;26.90;99.90
22337;DHT22;14992;50.844;4.418;2022-08-18T12:37:15;26.80;99.90
22337;DHT22;14992;50.844;4.418;2022-08-18T12:40:16;27.20;99.90
22337;DHT22;14992;50.844;4.418;2022-08-18T12:43:24;27.20;99.90
22337;DHT22;14992;50.844;4.418;2022-08-18T12:46:22;27.30;99.90
22337;DHT22;14992;50.844;4.418;2022-08-18T12:49:09;27.50;99.90
22337;DHT22;14992;50.844;4.418;2022-08-18T12:52:10;27.50;99.90
22337;DHT22;14992;50.844;4.418;2022-08-18T12:54:53;27.60;99.90
22337;DHT22;14992;50.844;4.418;2022-08-18T12:58:02;27.40;99.90
22337;DHT22;14992;50.844;4.418;2022-08-18T13:00:44;27.40;99.90
22337;DHT22;14992;50.844;4.418;2022-08-18T13:03:33;27.30;99.90
22337;DHT22;14992;50.844;4.418;2022-08-18T13:06:15;27.10;99.90
22337;DHT22;14992;50.844;4.418;2022-08-18T13:09:08;27.20;99.90
22337;DHT22;14992;50.844;4.418;2022-08-18T13:12:11;27.20;99.90
22337;DHT22;14992;50.844;4.418;2022-08-18T13:14:59;27.20;99.90
22337;DHT22;14992;50.844;4.418;2022-08-18T13:17:43;27.40;99.90
22337;DHT22;14992;50.844;4.418;2022-08-18T13:20:38;27.50;99.90
22337;DHT22;14992;50.844;4.418;2022-08-18T13:23:36;27.80;99.90
22337;DHT22;14992;50.844;4.418;2022-08-18T13:26:35;28.10;99.90
22337;DHT22;14992;50.844;4.418;2022-08-18T13:29:19;28.10;99.90
22337;DHT22;14992;50.844;4.418;2022-08-18T13:32:15;28.20;99.90
22337;DHT22;14992;50.844;4.418;2022-08-18T13:35:01;28.40;99.90
22337;DHT22;14992;50.844;4.418;2022-08-18T13:37:52;28.50;99.90
22337;DHT22;14992;50.844;4.418;2022-08-18T13:40:47;28.30;99.90
22337;DHT22;14992;50.844;4.418;2022-08-18T13:43:40;28.10;99.90
22337;DHT22;14992;50.844;4.418;2022-08-18T13:46:22;27.90;99.90
22337;DHT22;14992;50.844;4.418;2022-08-18T13:49:11;27.70;99.90
22337;DHT22;14992;50.844;4.418;2022-08-18T13:52:02;27.50;99.90
22337;DHT22;14992;50.844;4.418;2022-08-18T13:55:13;27.40;99.90
22337;DHT22;14992;50.844;4.418;2022-08-18T13:57:59;27.20;99.90
22337;DHT22;14992;50.844;4.418;2022-08-18T14:01:03;27.50;99.90
22337;DHT22;14992;50.844;4.418;2022-08-18T14:04:12;27.50;99.90
22337;DHT22;14992;50.844;4.418;2022-08-18T14:07:08;27.30;99.90
22337;DHT22;14992;50.844;4.418;2022-08-18T14:10:00;27.40;99.90
22337;DHT22;14992;50.844;4.418;2022-08-18T14:12:59;27.40;99.90
22337;DHT22;14992;50.844;4.418;2022-08-18T14:16:03;27.40;99.90
22337;DHT22;14992;50.844;4.418;2022-08-18T14:18:58;27.50;99.90
22337;DHT22;14992;50.844;4.418;2022-08-18T14:22:08;27.70;99.90
22337;DHT22;14992;50.844;4.418;2022-08-18T14:25:22;27.80;99.90
22337;DHT22;14992;50.844;4.418;2022-08-18T14:28:34;28.00;99.90
22337;DHT22;14992;50.844;4.418;2022-08-18T14:31:21;28.10;99.90
22337;DHT22;14992;50.844;4.418;2022-08-18T14:34:13;28.00;99.90
22337;DHT22;14992;50.844;4.418;2022-08-18T14:37:01;28.20;99.90
22337;DHT22;14992;50.844;4.418;2022-08-18T14:39:51;28.20;99.90
22337;DHT22;14992;50.844;4.418;2022-08-18T14:42:33;28.30;99.90
22337;DHT22;14992;50.844;4.418;2022-08-18T14:45:34;28.30;99.90
22337;DHT22;14992;50.844;4.418;2022-08-18T14:48:23;28.10;99.90
22337;DHT22;14992;50.844;4.418;2022-08-18T14:51:13;28.00;99.90
22337;DHT22;14992;50.844;4.418;2022-08-18T14:54:09;27.70;99.90
22337;DHT22;14992;50.844;4.418;2022-08-18T14:56:51;27.90;99.90
22337;DHT22;14992;50.844;4.418;2022-08-18T14:59:39;28.00;99.90
22337;DHT22;14992;50.844;4.418;2022-08-18T15:02:21;28.10;99.90
22337;DHT22;14992;50.844;4.418;2022-08-18T15:05:12;28.20;99.90
22337;DHT22;14992;50.844;4.418;2022-08-18T15:07:57;28.10;99.90
22337;DHT22;14992;50.844;4.418;2022-08-18T15:10:46;27.90;99.90
22337;DHT22;14992;50.844;4.418;2022-08-18T15:13:30;27.90;99.90
22337;DHT22;14992;50.844;4.418;2022-08-18T15:16:25;27.80;99.90
22337;DHT22;14992;50.844;4.418;2022-08-18T15:19:12;27.70;99.90
22337;DHT22;14992;50.844;4.418;2022-08-18T15:22:30;28.00;99.90
22337;DHT22;14992;50.844;4.418;2022-08-18T15:25:30;28.10;99.90
22337;DHT22;14992;50.844;4.418;2022-08-18T15:28:31;28.10;99.90
22337;DHT22;14992;50.844;4.418;2022-08-18T15:31:07;28.20;99.90
22337;DHT22;14992;50.844;4.418;2022-08-18T15:34:22;28.30;99.90
22337;DHT22;14992;50.844;4.418;2022-08-18T15:37:07;28.40;99.90
22337;DHT22;14992;50.844;4.418;2022-08-18T15:40:08;28.60;99.90
22337;DHT22;14992;50.844;4.418;2022-08-18T15:43:06;28.50;99.90
22337;DHT22;14992;50.844;4.418;2022-08-18T15:45:57;28.50;99.90
22337;DHT22;14992;50.844;4.418;2022-08-18T15:48:41;28.10;99.90
22337;DHT22;14992;50.844;4.418;2022-08-18T15:51:38;27.90;99.90
22337;DHT22;14992;50.844;4.418;2022-08-18T15:54:22;28.00;99.90
22337;DHT22;14992;50.844;4.418;2022-08-18T15:57:23;27.90;99.90
22337;DHT22;14992;50.844;4.418;2022-08-18T16:00:19;27.70;99.90
22337;DHT22;14992;50.844;4.418;2022-08-18T16:03:15;27.60;99.90
22337;DHT22;14992;50.844;4.418;2022-08-18T16:05:51;27.90;99.90
22337;DHT22;14992;50.844;4.418;2022-08-18T16:08:48;27.90;99.90
22337;DHT22;14992;50.844;4.418;2022-08-18T16:11:30;27.80;99.90
22337;DHT22;14992;50.844;4.418;2022-08-18T16:14:20;27.40;99.90
22337;DHT22;14992;50.844;4.418;2022-08-18T16:17:03;27.30;99.90
22337;DHT22;14992;50.844;4.418;2022-08-18T16:20:03;27.20;99.90
22337;DHT22;14992;50.844;4.418;2022-08-18T16:22:58;27.10;99.90
22337;DHT22;14992;50.844;4.418;2022-08-18T16:25:42;27.10;99.90
22337;DHT22;14992;50.844;4.418;2022-08-18T16:28:30;27.10;99.90
22337;DHT22;14992;50.844;4.418;2022-08-18T16:31:14;27.20;99.90
22337;DHT22;14992;50.844;4.418;2022-08-18T16:34:04;27.40;99.90
22337;DHT22;14992;50.844;4.418;2022-08-18T16:37:00;27.40;99.90
22337;DHT22;14992;50.844;4.418;2022-08-18T16:39:41;27.50;99.90
22337;DHT22;14992;50.844;4.418;2022-08-18T16:42:36;27.70;99.90
22337;DHT22;14992;50.844;4.418;2022-08-18T16:45:18;27.80;99.90
22337;DHT22;14992;50.844;4.418;2022-08-18T16:48:15;27.70;99.90
22337;DHT22;14992;50.844;4.418;2022-08-18T16:50:57;27.70;99.90
22337;DHT22;14992;50.844;4.418;2022-08-18T16:53:53;27.70;99.90
22337;DHT22;14992;50.844;4.418;2022-08-18T16:56:36;27.90;99.90
22337;DHT22;14992;50.844;4.418;2022-08-18T16:59:24;27.80;99.90
22337;DHT22;14992;50.844;4.418;2022-08-18T17:02:24;27.80;99.90
22337;DHT22;14992;50.844;4.418;2022-08-18T17:05:32;27.50;99.90
22337;DHT22;14992;50.844;4.418;2022-08-18T17:08:14;27.70;99.90
22337;DHT22;14992;50.844;4.418;2022-08-18T17:11:04;28.00;99.90
22337;DHT22;14992;50.844;4.418;2022-08-18T17:13:49;28.30;99.90
22337;DHT22;14992;50.844;4.418;2022-08-18T17:16:44;28.40;99.90
22337;DHT22;14992;50.844;4.418;2022-08-18T17:19:29;28.50;99.90
22337;DHT22;14992;50.844;4.418;2022-08-18T17:22:19;28.60;99.90
22337;DHT22;14992;50.844;4.418;2022-08-18T17:25:16;28.50;99.90
22337;DHT22;14992;50.844;4.418;2022-08-18T17:28:04;28.60;99.90
22337;DHT22;14992;50.844;4.418;2022-08-18T17:30:52;28.50;99.90
22337;DHT22;14992;50.844;4.418;2022-08-18T17:33:37;28.50;99.90
22337;DHT22;14992;50.844;4.418;2022-08-18T17:36:37;28.40;99.90
22337;DHT22;14992;50.844;4.418;2022-08-18T17:39:32;28.30;99.90
22337;DHT22;14992;50.844;4.418;2022-08-18T17:42:28;27.90;99.90
22337;DHT22;14992;50.844;4.418;2022-08-18T17:45:13;27.80;99.90
22337;DHT22;14992;50.844;4.418;2022-08-18T17:48:12;27.70;99.90
22337;DHT22;14992;50.844;4.418;2022-08-18T17:50:51;27.70;99.90
22337;DHT22;14992;50.844;4.418;2022-08-18T17:54:14;27.60;99.90
22337;DHT22;14992;50.844;4.418;2022-08-18T17:57:00;27.50;99.90
22337;DHT22;14992;50.844;4.418;2022-08-18T17:59:57;27.30;99.90
22337;DHT22;14992;50.844;4.418;2022-08-18T18:02:43;27.40;99.90
22337;DHT22;14992;50.844;4.418;2022-08-18T18:05:35;27.30;99.90
22337;DHT22;14992;50.844;4.418;2022-08-18T18:08:53;27.10;99.90
22337;DHT22;14992;50.844;4.418;2022-08-18T18:11:38;27.00;99.90
22337;DHT22;14992;50.844;4.418;2022-08-18T18:14:32;26.90;99.90
22337;DHT22;14992;50.844;4.418;2022-08-18T18:17:18;26.80;99.90
22337;DHT22;14992;50.844;4.418;2022-08-18T18:20:14;26.80;99.90
22337;DHT22;14992;50.844;4.418;2022-08-18T18:23:15;26.70;99.90
22337;DHT22;14992;50.844;4.418;2022-08-18T18:26:24;26.60;99.90
22337;DHT22;14992;50.844;4.418;2022-08-18T18:29:16;26.50;99.90
22337;DHT22;14992;50.844;4.418;2022-08-18T18:32:26;26.40;99.90